createdAt,value
2022-12-09T00:02:49.060Z,18.91
2022-12-09T00:18:04.961Z,18.89
2022-12-09T00:33:21.004Z,18.87
2022-12-09T00:48:38.074Z,18.85
2022-12-09T01:03:56.239Z,18.84
2022-12-09T01:19:13.096Z,18.85
2022-12-09T01:34:28.934Z,18.88
2022-12-09T01:49:44.732Z,18.9
2022-12-09T02:05:01.816Z,18.94
2022-12-09T02:20:17.968Z,18.97
2022-12-09T02:35:33.728Z,18.99
2022-12-09T02:50:50.692Z,19.01
2022-12-09T03:06:08.905Z,19.03
2022-12-09T03:21:25.550Z,19.04
2022-12-09T03:36:41.554Z,19.06
2022-12-09T03:51:57.498Z,19.05
2022-12-09T04:07:14.499Z,19.04
2022-12-09T04:22:30.667Z,19.04
2022-12-09T04:37:47.433Z,19.05
2022-12-09T04:53:04.478Z,19.04
2022-12-09T05:08:23.658Z,19.03
2022-12-09T05:23:37.523Z,19.04
2022-12-09T05:38:53.493Z,19.02
2022-12-09T05:54:09.660Z,19.02
2022-12-09T06:09:26.443Z,19
2022-12-09T06:24:42.217Z,19
2022-12-09T06:39:59.428Z,18.98
2022-12-09T06:55:16.236Z,18.96
2022-12-09T07:10:33.548Z,18.96
2022-12-09T07:25:49.128Z,18.92
2022-12-09T07:41:05.568Z,18.92
2022-12-09T07:56:21.036Z,18.92
2022-12-09T08:11:38.452Z,19
2022-12-09T08:26:54.246Z,19.1
2022-12-09T08:42:11.053Z,19.09
2022-12-09T08:57:28.157Z,19.13
2022-12-09T09:12:44.994Z,19.2
2022-12-09T09:28:02.262Z,19.25
2022-12-09T09:43:18.139Z,19.37
2022-12-09T09:58:34.098Z,19.41
2022-12-09T10:13:50.949Z,19.39
2022-12-09T10:29:07.031Z,19.51
2022-12-09T10:44:23.962Z,19.48
2022-12-09T10:59:40.886Z,19.48
2022-12-09T11:14:59.088Z,19.63
2022-12-09T11:30:15.595Z,19.65
2022-12-09T11:45:30.525Z,19.67
2022-12-09T12:00:46.477Z,19.81
2022-12-09T12:16:03.454Z,19.85
2022-12-09T12:31:19.473Z,19.9
2022-12-09T12:46:36.388Z,20
2022-12-09T13:01:53.410Z,20.08
2022-12-09T13:17:10.358Z,20.16
2022-12-09T13:32:26.283Z,20.14
2022-12-09T13:47:42.291Z,20.01
2022-12-09T14:02:58.302Z,19.98
2022-12-09T14:18:15.236Z,19.87
2022-12-09T14:33:32.161Z,19.79
2022-12-09T14:48:49.180Z,19.72
2022-12-09T15:04:06.321Z,19.71
2022-12-09T15:19:57.941Z,19.76
2022-12-09T15:34:39.088Z,19.84
2022-12-09T15:49:55.034Z,19.87
2022-12-09T16:05:11.012Z,19.9
2022-12-09T16:20:28.032Z,19.96
2022-12-09T16:35:43.966Z,19.97
2022-12-09T16:51:00.968Z,19.99
2022-12-09T17:06:17.899Z,20.04
2022-12-09T17:21:34.860Z,20.05
2022-12-09T17:36:50.829Z,20.07
2022-12-09T17:52:06.774Z,20.05
2022-12-09T18:07:19.096Z,20.02
2022-12-09T18:22:36.705Z,20
2022-12-09T18:37:53.718Z,19.96
2022-12-09T18:53:09.648Z,19.91
2022-12-09T19:08:26.621Z,19.89
2022-12-09T19:23:42.591Z,19.86
2022-12-09T19:38:58.576Z,19.82
2022-12-09T19:54:15.536Z,19.79
2022-12-09T20:09:33.487Z,19.75
2022-12-09T20:24:50.481Z,19.74
2022-12-09T20:40:06.635Z,19.7
2022-12-09T20:55:22.405Z,19.66
2022-12-09T21:10:39.357Z,19.63
2022-12-09T21:25:55.331Z,19.6
2022-12-09T21:41:11.347Z,19.56
2022-12-09T21:56:28.277Z,19.54
2022-12-09T22:11:46.248Z,19.51
2022-12-09T22:12:32.122Z,19.51
2022-12-09T22:27:04.260Z,19.48
2022-12-09T22:42:20.194Z,19.47
2022-12-09T22:57:36.199Z,19.44
2022-12-09T23:12:54.112Z,19.4
2022-12-09T23:28:11.133Z,19.38
2022-12-09T23:43:28.064Z,19.35
2022-12-09T23:58:44.051Z,19.33
